Orbital elements of COSMOS 970 DEB
| Launched | 20 December 1977 |
| Flight ended | – |
| Launch site | Tyuratam Missile and Space Center, Kazakhstan (Also known as Baikonur Cosmodrome) |
| Owner | Commonwealth of Independent States (former USSR) |
| NORAD ID | 10879 |
| Date fetched |
Epoch osculation |
Inc. [°] |
Ecc. | RA asc node [hr] |
Arg Peri. [°] |
Mean anom [°] |
Mean motion [rev/day] |
Abs. mag |
| Date fetched |
Epoch osculation |
Inc. [°] |
Ecc. | RA asc node [hr] |
Arg Peri. [°] |
Mean anom [°] |
Mean motion [rev/day] |
Abs. mag |
| 2026 May 03 17:57 | 2026 Apr 30 14:18:23 | 65.8266 | 0.01169 | 15.1056 | 166.9681 | 193.4450 | 13.77039 | – |
| 2026 May 02 17:57 | 2026 Apr 30 14:18:23 | 65.8266 | 0.01169 | 15.1056 | 166.9681 | 193.4450 | 13.77039 | – |
| 2026 May 01 17:56 | 2026 Apr 30 14:18:23 | 65.8266 | 0.01169 | 15.1056 | 166.9681 | 193.4450 | 13.77039 | – |
| 2026 Apr 30 17:56 | 2026 Apr 30 14:18:23 | 65.8266 | 0.01169 | 15.1056 | 166.9681 | 193.4450 | 13.77039 | – |
| 2026 Apr 29 17:57 | 2026 Apr 24 11:53:25 | 65.8263 | 0.01174 | 16.1143 | 169.9059 | 193.4450 | 13.77039 | – |
| 2026 Apr 28 17:56 | 2026 Apr 24 11:53:25 | 65.8263 | 0.01174 | 16.1143 | 169.9059 | 193.4450 | 13.77039 | – |
| 2026 Apr 27 17:58 | 2026 Apr 24 11:53:25 | 65.8263 | 0.01174 | 16.1143 | 169.9059 | 193.4450 | 13.77039 | – |
| 2026 Apr 26 17:58 | 2026 Apr 24 11:53:25 | 65.8263 | 0.01174 | 16.1143 | 169.9059 | 193.4450 | 13.77039 | – |
| 2026 Apr 25 17:58 | 2026 Apr 24 11:53:25 | 65.8263 | 0.01174 | 16.1143 | 169.9059 | 193.4450 | 13.77039 | – |
| 2026 Apr 24 17:59 | 2026 Apr 24 11:53:25 | 65.8263 | 0.01174 | 16.1143 | 169.9059 | 193.4450 | 13.77039 | – |
| 2026 Apr 23 17:57 | 2026 Apr 19 11:37:09 | 65.8259 | 0.01178 | 16.9429 | 172.3153 | 193.4450 | 13.77039 | – |
| 2026 Apr 22 17:57 | 2026 Apr 19 11:37:09 | 65.8259 | 0.01178 | 16.9429 | 172.3153 | 193.4450 | 13.77039 | – |
| 2026 Apr 21 17:57 | 2026 Apr 19 11:37:09 | 65.8259 | 0.01178 | 16.9429 | 172.3153 | 193.4450 | 13.77039 | – |
| 2026 Apr 20 17:57 | 2026 Apr 19 11:37:09 | 65.8259 | 0.01178 | 16.9429 | 172.3153 | 193.4450 | 13.77039 | – |
| 2026 Apr 19 17:58 | 2026 Apr 19 11:37:09 | 65.8259 | 0.01178 | 16.9429 | 172.3153 | 193.4450 | 13.77039 | – |
| 2026 Apr 18 17:56 | 2026 Apr 12 21:00:01 | 65.8257 | 0.01182 | 18.0358 | 175.5310 | 193.4450 | 13.77039 | – |
| 2026 Apr 16 17:57 | 2026 Apr 12 21:00:01 | 65.8257 | 0.01182 | 18.0358 | 175.5310 | 193.4450 | 13.77039 | – |
| 2026 Apr 14 17:57 | 2026 Apr 12 21:00:01 | 65.8257 | 0.01182 | 18.0358 | 175.5310 | 193.4450 | 13.77039 | – |
| 2026 Apr 13 17:57 | 2026 Apr 12 21:00:01 | 65.8257 | 0.01182 | 18.0358 | 175.5310 | 193.4450 | 13.77039 | – |
| 2026 Apr 12 17:57 | 2026 Apr 08 14:09:33 | 65.8256 | 0.01185 | 18.7444 | 177.6258 | 193.4450 | 13.77039 | – |
| 2026 Apr 11 17:57 | 2026 Apr 08 14:09:33 | 65.8256 | 0.01185 | 18.7444 | 177.6258 | 193.4450 | 13.77039 | – |
| 2026 Apr 10 17:58 | 2026 Apr 08 14:09:33 | 65.8256 | 0.01185 | 18.7444 | 177.6258 | 193.4450 | 13.77039 | – |
| 2026 Apr 09 18:01 | 2026 Apr 08 14:09:33 | 65.8256 | 0.01185 | 18.7444 | 177.6258 | 193.4450 | 13.77039 | – |
| 2026 Apr 08 17:57 | 2026 Apr 08 14:09:33 | 65.8256 | 0.01185 | 18.7444 | 177.6258 | 193.4450 | 13.77039 | – |
| 2026 Apr 07 17:57 | 2026 Apr 01 23:32:21 | 65.8263 | 0.01189 | 19.8373 | 180.8956 | 193.4450 | 13.77039 | – |
| 2026 Apr 06 17:57 | 2026 Apr 01 23:32:21 | 65.8263 | 0.01189 | 19.8373 | 180.8956 | 193.4450 | 13.77039 | – |